sensor_id;sensor_type;location;lat;lon;timestamp;P1;durP1;ratioP1;P2;durP2;ratioP2
12232;SDS011;6179;51.748;8.728;2024-02-16T00:04:38;5.33;;;0.60;;
12232;SDS011;6179;51.748;8.728;2024-02-16T00:10:38;11.00;;;0.80;;
12232;SDS011;6179;51.748;8.728;2024-02-16T00:16:39;0.53;;;0.50;;
12232;SDS011;6179;51.748;8.728;2024-02-16T00:22:40;4.97;;;0.50;;
12232;SDS011;6179;51.748;8.728;2024-02-16T00:28:41;1.83;;;0.57;;
12232;SDS011;6179;51.748;8.728;2024-02-16T00:34:42;1.37;;;0.60;;
12232;SDS011;6179;51.748;8.728;2024-02-16T00:40:43;1.10;;;0.53;;
12232;SDS011;6179;51.748;8.728;2024-02-16T00:46:44;2.40;;;1.00;;
12232;SDS011;6179;51.748;8.728;2024-02-16T00:52:45;2.23;;;0.77;;
12232;SDS011;6179;51.748;8.728;2024-02-16T00:58:45;3.53;;;0.70;;
12232;SDS011;6179;51.748;8.728;2024-02-16T01:04:46;4.23;;;0.50;;
12232;SDS011;6179;51.748;8.728;2024-02-16T01:10:47;7.23;;;0.50;;
12232;SDS011;6179;51.748;8.728;2024-02-16T01:16:47;0.50;;;0.50;;
12232;SDS011;6179;51.748;8.728;2024-02-16T01:22:48;1.93;;;0.63;;
12232;SDS011;6179;51.748;8.728;2024-02-16T01:28:49;2.30;;;0.50;;
12232;SDS011;6179;51.748;8.728;2024-02-16T01:34:49;1.17;;;0.60;;
12232;SDS011;6179;51.748;8.728;2024-02-16T01:40:50;0.60;;;0.60;;
12232;SDS011;6179;51.748;8.728;2024-02-16T01:46:51;1.57;;;0.87;;
12232;SDS011;6179;51.748;8.728;2024-02-16T01:52:52;2.10;;;1.30;;
12232;SDS011;6179;51.748;8.728;2024-02-16T01:58:52;4.93;;;2.77;;
12232;SDS011;6179;51.748;8.728;2024-02-16T02:04:53;4.47;;;1.30;;
12232;SDS011;6179;51.748;8.728;2024-02-16T02:10:54;1.53;;;0.80;;
12232;SDS011;6179;51.748;8.728;2024-02-16T02:16:54;3.43;;;0.90;;
12232;SDS011;6179;51.748;8.728;2024-02-16T02:22:55;1.53;;;0.80;;
12232;SDS011;6179;51.748;8.728;2024-02-16T02:28:55;4.73;;;0.77;;
12232;SDS011;6179;51.748;8.728;2024-02-16T02:34:56;1.43;;;0.60;;
12232;SDS011;6179;51.748;8.728;2024-02-16T02:40:57;2.40;;;0.70;;
12232;SDS011;6179;51.748;8.728;2024-02-16T02:46:57;0.93;;;0.70;;
12232;SDS011;6179;51.748;8.728;2024-02-16T02:52:58;3.40;;;0.60;;
12232;SDS011;6179;51.748;8.728;2024-02-16T02:58:58;0.80;;;0.67;;
12232;SDS011;6179;51.748;8.728;2024-02-16T03:04:59;1.13;;;0.80;;
12232;SDS011;6179;51.748;8.728;2024-02-16T03:11:00;1.13;;;0.80;;
12232;SDS011;6179;51.748;8.728;2024-02-16T03:17:01;0.60;;;0.60;;
12232;SDS011;6179;51.748;8.728;2024-02-16T03:23:02;1.57;;;0.50;;
12232;SDS011;6179;51.748;8.728;2024-02-16T03:29:02;0.50;;;0.50;;
12232;SDS011;6179;51.748;8.728;2024-02-16T03:35:03;2.07;;;0.90;;
12232;SDS011;6179;51.748;8.728;2024-02-16T03:41:04;0.40;;;0.40;;
12232;SDS011;6179;51.748;8.728;2024-02-16T03:47:05;3.20;;;0.70;;
12232;SDS011;6179;51.748;8.728;2024-02-16T03:53:05;0.50;;;0.50;;
12232;SDS011;6179;51.748;8.728;2024-02-16T03:59:06;0.50;;;0.50;;
12232;SDS011;6179;51.748;8.728;2024-02-16T04:05:07;1.40;;;0.60;;
12232;SDS011;6179;51.748;8.728;2024-02-16T04:11:10;1.03;;;0.50;;
12232;SDS011;6179;51.748;8.728;2024-02-16T04:17:12;1.67;;;0.57;;
12232;SDS011;6179;51.748;8.728;2024-02-16T04:23:13;2.43;;;0.97;;
12232;SDS011;6179;51.748;8.728;2024-02-16T04:29:13;5.07;;;0.90;;
12232;SDS011;6179;51.748;8.728;2024-02-16T04:35:14;2.47;;;0.60;;
12232;SDS011;6179;51.748;8.728;2024-02-16T04:41:15;1.73;;;0.90;;
12232;SDS011;6179;51.748;8.728;2024-02-16T04:47:16;3.60;;;0.87;;
12232;SDS011;6179;51.748;8.728;2024-02-16T04:53:17;0.70;;;0.70;;
12232;SDS011;6179;51.748;8.728;2024-02-16T04:59:17;13.80;;;1.10;;
12232;SDS011;6179;51.748;8.728;2024-02-16T05:05:18;0.73;;;0.73;;
12232;SDS011;6179;51.748;8.728;2024-02-16T05:11:19;0.80;;;0.70;;
12232;SDS011;6179;51.748;8.728;2024-02-16T05:17:20;0.93;;;0.60;;
12232;SDS011;6179;51.748;8.728;2024-02-16T05:23:22;3.00;;;0.50;;
12232;SDS011;6179;51.748;8.728;2024-02-16T05:29:23;2.83;;;0.77;;
12232;SDS011;6179;51.748;8.728;2024-02-16T05:35:24;1.23;;;1.10;;
12232;SDS011;6179;51.748;8.728;2024-02-16T05:41:27;3.33;;;0.83;;
12232;SDS011;6179;51.748;8.728;2024-02-16T05:47:28;3.07;;;1.30;;
12232;SDS011;6179;51.748;8.728;2024-02-16T05:53:28;6.53;;;1.00;;
12232;SDS011;6179;51.748;8.728;2024-02-16T05:59:29;1.70;;;1.13;;
12232;SDS011;6179;51.748;8.728;2024-02-16T06:05:30;3.50;;;0.90;;
12232;SDS011;6179;51.748;8.728;2024-02-16T06:11:30;3.80;;;1.03;;
12232;SDS011;6179;51.748;8.728;2024-02-16T06:17:31;3.23;;;1.20;;
12232;SDS011;6179;51.748;8.728;2024-02-16T06:23:32;7.37;;;1.03;;
12232;SDS011;6179;51.748;8.728;2024-02-16T06:29:32;2.93;;;1.17;;
12232;SDS011;6179;51.748;8.728;2024-02-16T06:35:33;7.57;;;1.60;;
12232;SDS011;6179;51.748;8.728;2024-02-16T06:41:33;1.10;;;1.00;;
12232;SDS011;6179;51.748;8.728;2024-02-16T06:47:34;2.80;;;0.93;;
12232;SDS011;6179;51.748;8.728;2024-02-16T06:53:35;2.00;;;0.80;;
12232;SDS011;6179;51.748;8.728;2024-02-16T06:59:35;1.30;;;0.60;;
12232;SDS011;6179;51.748;8.728;2024-02-16T07:05:36;3.63;;;1.00;;
12232;SDS011;6179;51.748;8.728;2024-02-16T07:11:36;3.90;;;1.50;;
12232;SDS011;6179;51.748;8.728;2024-02-16T07:17:37;2.60;;;1.27;;
12232;SDS011;6179;51.748;8.728;2024-02-16T07:23:38;6.10;;;1.43;;
12232;SDS011;6179;51.748;8.728;2024-02-16T07:29:39;2.13;;;1.93;;
12232;SDS011;6179;51.748;8.728;2024-02-16T07:35:39;1.33;;;1.20;;
12232;SDS011;6179;51.748;8.728;2024-02-16T07:41:40;2.90;;;1.00;;
12232;SDS011;6179;51.748;8.728;2024-02-16T07:47:41;1.37;;;0.60;;
12232;SDS011;6179;51.748;8.728;2024-02-16T07:53:41;1.47;;;0.70;;
12232;SDS011;6179;51.748;8.728;2024-02-16T07:59:44;2.40;;;1.00;;
12232;SDS011;6179;51.748;8.728;2024-02-16T08:05:45;3.03;;;1.00;;
12232;SDS011;6179;51.748;8.728;2024-02-16T08:11:45;3.03;;;0.70;;
12232;SDS011;6179;51.748;8.728;2024-02-16T08:17:46;3.03;;;1.07;;
12232;SDS011;6179;51.748;8.728;2024-02-16T08:23:47;0.90;;;0.67;;
12232;SDS011;6179;51.748;8.728;2024-02-16T08:29:47;12.60;;;1.33;;
12232;SDS011;6179;51.748;8.728;2024-02-16T08:35:54;2.30;;;0.80;;
12232;SDS011;6179;51.748;8.728;2024-02-16T08:41:54;0.97;;;0.80;;
12232;SDS011;6179;51.748;8.728;2024-02-16T08:47:55;4.83;;;1.43;;
12232;SDS011;6179;51.748;8.728;2024-02-16T08:53:57;1.67;;;0.80;;
12232;SDS011;6179;51.748;8.728;2024-02-16T08:59:58;1.00;;;0.73;;
12232;SDS011;6179;51.748;8.728;2024-02-16T09:05:58;1.63;;;0.70;;
12232;SDS011;6179;51.748;8.728;2024-02-16T09:11:59;3.80;;;0.83;;
12232;SDS011;6179;51.748;8.728;2024-02-16T09:17:59;4.57;;;0.60;;
12232;SDS011;6179;51.748;8.728;2024-02-16T09:24:00;1.03;;;0.50;;
12232;SDS011;6179;51.748;8.728;2024-02-16T09:30:01;1.47;;;0.60;;
12232;SDS011;6179;51.748;8.728;2024-02-16T09:36:03;1.47;;;0.50;;
12232;SDS011;6179;51.748;8.728;2024-02-16T09:42:04;0.60;;;0.60;;
12232;SDS011;6179;51.748;8.728;2024-02-16T09:48:05;3.43;;;0.80;;
12232;SDS011;6179;51.748;8.728;2024-02-16T09:54:09;2.73;;;0.77;;
12232;SDS011;6179;51.748;8.728;2024-02-16T10:00:11;0.90;;;0.90;;
12232;SDS011;6179;51.748;8.728;2024-02-16T10:06:13;1.57;;;0.60;;
12232;SDS011;6179;51.748;8.728;2024-02-16T10:12:17;1.57;;;0.53;;
12232;SDS011;6179;51.748;8.728;2024-02-16T10:18:19;2.20;;;0.57;;
12232;SDS011;6179;51.748;8.728;2024-02-16T10:24:22;7.60;;;0.70;;
12232;SDS011;6179;51.748;8.728;2024-02-16T10:30:23;1.43;;;0.80;;
12232;SDS011;6179;51.748;8.728;2024-02-16T10:36:29;3.00;;;0.63;;
12232;SDS011;6179;51.748;8.728;2024-02-16T10:42:32;2.83;;;0.70;;
12232;SDS011;6179;51.748;8.728;2024-02-16T10:48:35;0.80;;;0.80;;
12232;SDS011;6179;51.748;8.728;2024-02-16T10:54:36;3.10;;;0.70;;
12232;SDS011;6179;51.748;8.728;2024-02-16T11:00:52;1.20;;;0.90;;
12232;SDS011;6179;51.748;8.728;2024-02-16T11:06:54;2.43;;;1.17;;
12232;SDS011;6179;51.748;8.728;2024-02-16T11:13:02;1.57;;;0.80;;
12232;SDS011;6179;51.748;8.728;2024-02-16T11:19:08;2.00;;;0.90;;
12232;SDS011;6179;51.748;8.728;2024-02-16T11:25:08;1.77;;;1.00;;
12232;SDS011;6179;51.748;8.728;2024-02-16T11:31:09;5.27;;;1.10;;
12232;SDS011;6179;51.748;8.728;2024-02-16T11:37:10;5.30;;;1.20;;
12232;SDS011;6179;51.748;8.728;2024-02-16T11:43:19;3.00;;;1.13;;
12232;SDS011;6179;51.748;8.728;2024-02-16T11:49:21;10.03;;;2.57;;
12232;SDS011;6179;51.748;8.728;2024-02-16T11:55:22;5.20;;;1.40;;
12232;SDS011;6179;51.748;8.728;2024-02-16T12:01:23;5.57;;;2.00;;
12232;SDS011;6179;51.748;8.728;2024-02-16T12:07:28;8.37;;;1.70;;
12232;SDS011;6179;51.748;8.728;2024-02-16T12:13:29;3.03;;;1.13;;
12232;SDS011;6179;51.748;8.728;2024-02-16T12:19:29;14.33;;;1.60;;
12232;SDS011;6179;51.748;8.728;2024-02-16T12:25:30;3.43;;;1.13;;
12232;SDS011;6179;51.748;8.728;2024-02-16T12:31:31;3.20;;;1.07;;
12232;SDS011;6179;51.748;8.728;2024-02-16T12:37:31;10.07;;;1.07;;
12232;SDS011;6179;51.748;8.728;2024-02-16T12:43:32;8.13;;;1.90;;
12232;SDS011;6179;51.748;8.728;2024-02-16T12:49:33;5.67;;;1.43;;
12232;SDS011;6179;51.748;8.728;2024-02-16T12:55:35;9.83;;;1.80;;
12232;SDS011;6179;51.748;8.728;2024-02-16T13:01:36;8.33;;;1.07;;
12232;SDS011;6179;51.748;8.728;2024-02-16T13:07:37;5.23;;;2.77;;
12232;SDS011;6179;51.748;8.728;2024-02-16T13:13:39;4.03;;;2.03;;
12232;SDS011;6179;51.748;8.728;2024-02-16T13:19:40;7.73;;;1.57;;
12232;SDS011;6179;51.748;8.728;2024-02-16T13:25:41;2.20;;;1.37;;
12232;SDS011;6179;51.748;8.728;2024-02-16T13:31:41;4.10;;;1.57;;
12232;SDS011;6179;51.748;8.728;2024-02-16T13:37:42;6.97;;;2.17;;
12232;SDS011;6179;51.748;8.728;2024-02-16T13:43:43;4.57;;;2.03;;
12232;SDS011;6179;51.748;8.728;2024-02-16T13:49:43;8.10;;;2.53;;
12232;SDS011;6179;51.748;8.728;2024-02-16T13:55:44;6.23;;;1.57;;
12232;SDS011;6179;51.748;8.728;2024-02-16T14:01:45;9.03;;;3.00;;
12232;SDS011;6179;51.748;8.728;2024-02-16T14:07:46;3.50;;;2.23;;
12232;SDS011;6179;51.748;8.728;2024-02-16T14:13:47;7.43;;;3.13;;
12232;SDS011;6179;51.748;8.728;2024-02-16T14:19:48;5.10;;;2.73;;
12232;SDS011;6179;51.748;8.728;2024-02-16T14:25:49;7.00;;;3.10;;
12232;SDS011;6179;51.748;8.728;2024-02-16T14:31:49;9.67;;;3.20;;
12232;SDS011;6179;51.748;8.728;2024-02-16T14:37:50;10.60;;;2.53;;
12232;SDS011;6179;51.748;8.728;2024-02-16T14:43:51;6.60;;;3.40;;
12232;SDS011;6179;51.748;8.728;2024-02-16T14:49:51;7.87;;;2.97;;
12232;SDS011;6179;51.748;8.728;2024-02-16T14:55:52;9.27;;;5.40;;
12232;SDS011;6179;51.748;8.728;2024-02-16T15:01:53;14.30;;;4.63;;
12232;SDS011;6179;51.748;8.728;2024-02-16T15:07:53;8.33;;;3.50;;
12232;SDS011;6179;51.748;8.728;2024-02-16T15:13:54;10.83;;;3.73;;
12232;SDS011;6179;51.748;8.728;2024-02-16T15:19:54;11.60;;;4.03;;
12232;SDS011;6179;51.748;8.728;2024-02-16T15:25:55;5.73;;;3.70;;
12232;SDS011;6179;51.748;8.728;2024-02-16T15:31:56;17.60;;;4.17;;
12232;SDS011;6179;51.748;8.728;2024-02-16T15:37:59;5.63;;;2.33;;
12232;SDS011;6179;51.748;8.728;2024-02-16T15:43:59;6.53;;;3.90;;
12232;SDS011;6179;51.748;8.728;2024-02-16T15:50:00;3.70;;;2.83;;
12232;SDS011;6179;51.748;8.728;2024-02-16T15:56:00;8.93;;;3.17;;
12232;SDS011;6179;51.748;8.728;2024-02-16T16:02:03;5.67;;;2.67;;
12232;SDS011;6179;51.748;8.728;2024-02-16T16:08:04;8.23;;;3.40;;
12232;SDS011;6179;51.748;8.728;2024-02-16T16:14:05;3.67;;;2.60;;
12232;SDS011;6179;51.748;8.728;2024-02-16T16:20:05;4.90;;;2.43;;
12232;SDS011;6179;51.748;8.728;2024-02-16T16:26:07;6.00;;;3.47;;
12232;SDS011;6179;51.748;8.728;2024-02-16T16:32:08;7.53;;;3.30;;
12232;SDS011;6179;51.748;8.728;2024-02-16T16:38:09;4.37;;;2.80;;
12232;SDS011;6179;51.748;8.728;2024-02-16T16:44:09;2.50;;;2.00;;
12232;SDS011;6179;51.748;8.728;2024-02-16T16:50:11;2.93;;;2.10;;
12232;SDS011;6179;51.748;8.728;2024-02-16T16:56:12;4.13;;;2.57;;
12232;SDS011;6179;51.748;8.728;2024-02-16T17:02:13;4.67;;;3.03;;
12232;SDS011;6179;51.748;8.728;2024-02-16T17:08:14;5.60;;;3.57;;
12232;SDS011;6179;51.748;8.728;2024-02-16T17:14:15;4.00;;;3.67;;
12232;SDS011;6179;51.748;8.728;2024-02-16T17:20:16;7.33;;;4.63;;
12232;SDS011;6179;51.748;8.728;2024-02-16T17:26:17;6.60;;;4.40;;
12232;SDS011;6179;51.748;8.728;2024-02-16T17:32:18;16.80;;;7.33;;
12232;SDS011;6179;51.748;8.728;2024-02-16T17:38:19;13.53;;;6.97;;
12232;SDS011;6179;51.748;8.728;2024-02-16T17:44:19;8.13;;;5.60;;
12232;SDS011;6179;51.748;8.728;2024-02-16T17:50:20;6.60;;;5.77;;
12232;SDS011;6179;51.748;8.728;2024-02-16T17:56:22;7.93;;;5.77;;
12232;SDS011;6179;51.748;8.728;2024-02-16T18:02:22;6.07;;;5.17;;
12232;SDS011;6179;51.748;8.728;2024-02-16T18:08:23;8.27;;;5.80;;
12232;SDS011;6179;51.748;8.728;2024-02-16T18:14:24;10.80;;;6.27;;
12232;SDS011;6179;51.748;8.728;2024-02-16T18:20:24;8.53;;;5.87;;
12232;SDS011;6179;51.748;8.728;2024-02-16T18:26:25;8.97;;;7.37;;
12232;SDS011;6179;51.748;8.728;2024-02-16T18:32:28;11.53;;;6.80;;
12232;SDS011;6179;51.748;8.728;2024-02-16T18:38:29;16.20;;;7.20;;
12232;SDS011;6179;51.748;8.728;2024-02-16T18:44:30;8.60;;;6.70;;
12232;SDS011;6179;51.748;8.728;2024-02-16T18:50:31;8.13;;;6.20;;
12232;SDS011;6179;51.748;8.728;2024-02-16T18:56:31;9.63;;;6.23;;
12232;SDS011;6179;51.748;8.728;2024-02-16T19:02:32;7.00;;;5.30;;
12232;SDS011;6179;51.748;8.728;2024-02-16T19:08:37;10.17;;;6.87;;
12232;SDS011;6179;51.748;8.728;2024-02-16T19:14:37;15.70;;;6.37;;
12232;SDS011;6179;51.748;8.728;2024-02-16T19:20:39;11.83;;;7.33;;
12232;SDS011;6179;51.748;8.728;2024-02-16T19:26:40;7.00;;;5.00;;
12232;SDS011;6179;51.748;8.728;2024-02-16T19:32:41;14.10;;;5.37;;
12232;SDS011;6179;51.748;8.728;2024-02-16T19:38:42;7.23;;;4.37;;
12232;SDS011;6179;51.748;8.728;2024-02-16T19:44:43;5.63;;;4.03;;
12232;SDS011;6179;51.748;8.728;2024-02-16T19:50:44;5.47;;;3.00;;
12232;SDS011;6179;51.748;8.728;2024-02-16T19:56:46;3.77;;;3.10;;
12232;SDS011;6179;51.748;8.728;2024-02-16T20:02:47;1.97;;;1.87;;
12232;SDS011;6179;51.748;8.728;2024-02-16T20:08:48;5.67;;;2.43;;
12232;SDS011;6179;51.748;8.728;2024-02-16T20:14:49;6.73;;;1.80;;
12232;SDS011;6179;51.748;8.728;2024-02-16T20:20:49;2.90;;;2.30;;
12232;SDS011;6179;51.748;8.728;2024-02-16T20:26:50;3.30;;;3.00;;
12232;SDS011;6179;51.748;8.728;2024-02-16T20:32:51;4.07;;;3.63;;
12232;SDS011;6179;51.748;8.728;2024-02-16T20:38:54;4.87;;;3.00;;
12232;SDS011;6179;51.748;8.728;2024-02-16T20:44:54;6.50;;;4.70;;
12232;SDS011;6179;51.748;8.728;2024-02-16T20:50:55;6.33;;;3.70;;
12232;SDS011;6179;51.748;8.728;2024-02-16T20:56:56;11.60;;;5.07;;
12232;SDS011;6179;51.748;8.728;2024-02-16T21:02:56;7.63;;;5.03;;
12232;SDS011;6179;51.748;8.728;2024-02-16T21:08:58;9.33;;;4.97;;
12232;SDS011;6179;51.748;8.728;2024-02-16T21:14:58;7.87;;;5.87;;
12232;SDS011;6179;51.748;8.728;2024-02-16T21:20:59;9.37;;;5.60;;
12232;SDS011;6179;51.748;8.728;2024-02-16T21:27:00;5.67;;;2.77;;
12232;SDS011;6179;51.748;8.728;2024-02-16T21:33:01;11.37;;;5.60;;
12232;SDS011;6179;51.748;8.728;2024-02-16T21:39:04;7.67;;;4.33;;
12232;SDS011;6179;51.748;8.728;2024-02-16T21:45:06;8.60;;;4.87;;
12232;SDS011;6179;51.748;8.728;2024-02-16T21:51:06;9.57;;;4.87;;
12232;SDS011;6179;51.748;8.728;2024-02-16T21:57:07;12.37;;;7.40;;
12232;SDS011;6179;51.748;8.728;2024-02-16T22:03:08;11.67;;;6.50;;
12232;SDS011;6179;51.748;8.728;2024-02-16T22:09:08;11.67;;;7.00;;
12232;SDS011;6179;51.748;8.728;2024-02-16T22:15:09;11.53;;;6.20;;
12232;SDS011;6179;51.748;8.728;2024-02-16T22:21:10;17.13;;;7.80;;
12232;SDS011;6179;51.748;8.728;2024-02-16T22:27:12;15.37;;;7.37;;
12232;SDS011;6179;51.748;8.728;2024-02-16T22:33:12;13.13;;;7.43;;
12232;SDS011;6179;51.748;8.728;2024-02-16T22:39:13;14.73;;;8.10;;
12232;SDS011;6179;51.748;8.728;2024-02-16T22:45:13;11.93;;;7.00;;
12232;SDS011;6179;51.748;8.728;2024-02-16T22:51:15;17.07;;;8.87;;
12232;SDS011;6179;51.748;8.728;2024-02-16T22:57:16;14.83;;;8.00;;
12232;SDS011;6179;51.748;8.728;2024-02-16T23:03:16;15.50;;;8.27;;
12232;SDS011;6179;51.748;8.728;2024-02-16T23:09:17;21.50;;;8.30;;
12232;SDS011;6179;51.748;8.728;2024-02-16T23:15:18;19.17;;;7.20;;
12232;SDS011;6179;51.748;8.728;2024-02-16T23:21:19;11.60;;;6.63;;
12232;SDS011;6179;51.748;8.728;2024-02-16T23:27:20;13.83;;;6.83;;
12232;SDS011;6179;51.748;8.728;2024-02-16T23:33:20;16.03;;;8.00;;
12232;SDS011;6179;51.748;8.728;2024-02-16T23:39:21;15.17;;;6.93;;
12232;SDS011;6179;51.748;8.728;2024-02-16T23:45:22;14.70;;;7.90;;
12232;SDS011;6179;51.748;8.728;2024-02-16T23:51:22;17.87;;;8.97;;
12232;SDS011;6179;51.748;8.728;2024-02-16T23:57:23;12.70;;;7.83;;
